PROFILE

 METAR AND TAF INFORMATION
METAR FOR LIEE
ADDS - METARS form results

(2259 UTC 23 April 2018)
Data provider http://aviationweather.gov/adds/metars/
 
METAR text: LIEE 232250Z 31002KT CAVOK 15/11 Q1019
Conditions at: LIEE (CAGLIARI/ELMAS(A, IT) observed 2250 UTC 23 April 2018
Temperature: 15.0°C (59°F)
Dewpoint: 11.0°C (52°F) [RH = 77%]
Pressure (altimeter): 30.09 inches Hg (1019.0 mb)
Winds: from the NW (310 degrees) at 2 MPH (2 knots; 1.0 m/s)
Visibility: 6 or more miles (10+ km)
Ceiling: ceiling and visibility are OK
Clouds: unknown
Weather: no significant weather observed at this time

METAR text: LIEE 232220Z VRB02KT CAVOK 15/11 Q1019
Conditions at: LIEE (CAGLIARI/ELMAS(A, IT) observed 2220 UTC 23 April 2018
Temperature: 15.0°C (59°F)
Dewpoint: 11.0°C (52°F) [RH = 77%]
Pressure (altimeter): 30.09 inches Hg (1019.0 mb)
Winds: variable direction winds at 2 MPH (2 knots; 1.0 m/s)
Visibility: 6 or more miles (10+ km)
Ceiling: ceiling and visibility are OK
Clouds: unknown
Weather: no significant weather observed at this time

Forecast for: LIEE (CAGLIARI/ELMAS(A, IT)
Text: TAF LIEE 231700Z 2318/2418 VRB05KT CAVOK
Forecast period: 1800 UTC 23 April 2018 to 0900 UTC 24 April 2018
Forecast type: FROM: standard forecast or significant change
Winds: variable direction winds at 6 MPH (5 knots; 2.6 m/s)
Visibility: 6 or more miles (10+ km)
Clouds: not forecast
Weather: NSW  (no significant weather)
Text: BECMG 2409/2411 16010KT
Forecast period: 0900 to 1600 UTC 24 April 2018
Forecast type: BECOMING: Conditions expected to become as follows by 1100 UTC 24 April 2018
Winds: from the SSE (160 degrees) at 12 MPH (10 knots; 5.2 m/s)
Visibility: 6 or more miles (10+ km)
Weather: NSW  (no significant weather)
Text: BECMG 2416/2418 VRB04KT
Forecast period: 1600 to 1800 UTC 24 April 2018
Forecast type: BECOMING: Conditions expected to become as follows by 1800 UTC 24 April 2018
Winds: variable direction winds at 5 MPH (4 knots; 2.1 m/s)
Visibility: 6 or more miles (10+ km)
Weather: NSW  (no significant weather)

 AIRPORT MAP

 RUNWAY INFORMATION
Runway 14 Runway length 9196 ft Runway width 148 ft
Runway elevation 9 ft Runway displaced threshold 0 ft Runway heading 138
Runway 32 Runway length 9196 ft Runway width 148 ft
Runway elevation 4 ft Runway displaced threshold 0 ft Runway heading 318

 AIRPORT FREQUENCIES
Type APP Name CAGLIARI A Frequency 118.75 MHZ
Type GND Name Elmas GND Frequency 125.425 MHZ
Type MISC Name SAR Frequency 123.1 MHZ
Type TWR Name TWR Frequency 120.6 MHZ

 AIRPORT NEAR NAVIGATION AIDS
Type VOR-DME Name Cagliari Frequency 113400 KHZ
Type NDB Name Cagliari Frequency 371 KHZ